sensor_id;sensor_type;location;lat;lon;timestamp;pressure;altitude;pressure_sealevel;temperature;humidity
12213;BME280;6169;44.158;22.788;2023-01-28T00:01:36;100713.81;;;5.79;68.75
12213;BME280;6169;44.158;22.788;2023-01-28T00:06:38;100718.00;;;5.67;68.62
12213;BME280;6169;44.158;22.788;2023-01-28T00:11:41;100729.44;;;5.90;67.97
12213;BME280;6169;44.158;22.788;2023-01-28T00:16:44;100727.63;;;5.76;69.46
12213;BME280;6169;44.158;22.788;2023-01-28T00:21:46;100725.59;;;5.78;69.01
12213;BME280;6169;44.158;22.788;2023-01-28T00:26:49;100728.00;;;5.73;69.68
12213;BME280;6169;44.158;22.788;2023-01-28T00:31:52;100729.56;;;5.67;69.14
12213;BME280;6169;44.158;22.788;2023-01-28T00:36:54;100731.69;;;5.72;69.12
12213;BME280;6169;44.158;22.788;2023-01-28T00:41:59;100744.88;;;5.67;69.27
12213;BME280;6169;44.158;22.788;2023-01-28T00:47:01;100670.78;;;5.43;67.82
12213;BME280;6169;44.158;22.788;2023-01-28T00:52:04;100753.47;;;5.92;67.30
12213;BME280;6169;44.158;22.788;2023-01-28T00:57:07;100754.81;;;6.02;67.59
12213;BME280;6169;44.158;22.788;2023-01-28T01:02:10;100748.72;;;5.94;68.05
12213;BME280;6169;44.158;22.788;2023-01-28T01:07:14;100752.84;;;5.75;67.83
12213;BME280;6169;44.158;22.788;2023-01-28T01:12:18;100761.09;;;5.73;67.92
12213;BME280;6169;44.158;22.788;2023-01-28T01:17:20;100751.63;;;5.63;68.37
12213;BME280;6169;44.158;22.788;2023-01-28T01:22:22;100743.50;;;5.71;67.90
12213;BME280;6169;44.158;22.788;2023-01-28T01:27:26;100749.25;;;5.53;67.92
12213;BME280;6169;44.158;22.788;2023-01-28T01:32:29;100748.50;;;5.44;68.33
12213;BME280;6169;44.158;22.788;2023-01-28T01:37:31;100755.00;;;5.50;68.20
12213;BME280;6169;44.158;22.788;2023-01-28T01:42:35;100759.25;;;5.44;68.91
12213;BME280;6169;44.158;22.788;2023-01-28T01:47:42;100760.00;;;5.53;68.14
12213;BME280;6169;44.158;22.788;2023-01-28T01:52:46;100763.63;;;5.30;67.97
12213;BME280;6169;44.158;22.788;2023-01-28T01:57:54;100752.75;;;5.09;68.56
12213;BME280;6169;44.158;22.788;2023-01-28T02:02:57;100763.88;;;5.21;68.02
12213;BME280;6169;44.158;22.788;2023-01-28T02:08:00;100769.72;;;5.39;65.98
12213;BME280;6169;44.158;22.788;2023-01-28T02:13:18;100769.16;;;4.99;67.91
12213;BME280;6169;44.158;22.788;2023-01-28T02:18:22;100775.44;;;5.06;67.04
12213;BME280;6169;44.158;22.788;2023-01-28T02:23:37;100775.50;;;4.83;68.48
12213;BME280;6169;44.158;22.788;2023-01-28T02:28:47;100777.75;;;4.94;68.73
12213;BME280;6169;44.158;22.788;2023-01-28T02:33:58;100780.50;;;5.01;67.77
12213;BME280;6169;44.158;22.788;2023-01-28T02:39:07;100780.19;;;5.19;66.73
12213;BME280;6169;44.158;22.788;2023-01-28T02:44:11;100779.91;;;5.29;66.46
12213;BME280;6169;44.158;22.788;2023-01-28T02:49:17;100782.13;;;5.40;66.09
12213;BME280;6169;44.158;22.788;2023-01-28T02:54:29;100783.03;;;5.18;67.01
12213;BME280;6169;44.158;22.788;2023-01-28T02:59:41;100781.13;;;5.41;65.31
12213;BME280;6169;44.158;22.788;2023-01-28T03:04:53;100784.72;;;5.48;65.41
12213;BME280;6169;44.158;22.788;2023-01-28T03:10:01;100786.47;;;5.26;65.75
12213;BME280;6169;44.158;22.788;2023-01-28T03:15:09;100787.22;;;5.20;66.70
12213;BME280;6169;44.158;22.788;2023-01-28T03:20:35;100787.13;;;5.28;66.37
12213;BME280;6169;44.158;22.788;2023-01-28T03:25:58;100790.91;;;5.49;66.04
12213;BME280;6169;44.158;22.788;2023-01-28T03:31:21;100786.75;;;5.31;65.45
12213;BME280;6169;44.158;22.788;2023-01-28T03:36:42;100786.84;;;5.38;64.79
12213;BME280;6169;44.158;22.788;2023-01-28T03:41:56;100789.81;;;5.43;65.23
12213;BME280;6169;44.158;22.788;2023-01-28T03:47:00;100782.13;;;5.40;64.51
12213;BME280;6169;44.158;22.788;2023-01-28T03:52:02;100799.06;;;5.41;64.82
12213;BME280;6169;44.158;22.788;2023-01-28T03:57:04;100798.91;;;5.42;64.45
12213;BME280;6169;44.158;22.788;2023-01-28T04:02:09;100807.88;;;5.34;64.33
12213;BME280;6169;44.158;22.788;2023-01-28T04:07:12;100813.16;;;5.28;65.78
12213;BME280;6169;44.158;22.788;2023-01-28T04:12:15;100814.56;;;5.38;64.97
12213;BME280;6169;44.158;22.788;2023-01-28T04:17:19;100823.31;;;5.18;64.98
12213;BME280;6169;44.158;22.788;2023-01-28T04:22:21;100819.63;;;5.48;63.93
12213;BME280;6169;44.158;22.788;2023-01-28T04:27:24;100822.03;;;5.43;64.00
12213;BME280;6169;44.158;22.788;2023-01-28T04:32:27;100819.06;;;5.08;64.49
12213;BME280;6169;44.158;22.788;2023-01-28T04:37:29;100832.94;;;5.12;64.13
12213;BME280;6169;44.158;22.788;2023-01-28T04:42:32;100832.84;;;5.05;64.86
12213;BME280;6169;44.158;22.788;2023-01-28T04:47:35;100843.69;;;5.27;63.80
12213;BME280;6169;44.158;22.788;2023-01-28T04:52:37;100853.59;;;5.11;63.65
12213;BME280;6169;44.158;22.788;2023-01-28T04:57:40;100851.22;;;5.46;62.60
12213;BME280;6169;44.158;22.788;2023-01-28T05:02:43;100856.88;;;5.36;63.57
12213;BME280;6169;44.158;22.788;2023-01-28T05:07:50;100858.09;;;5.49;64.02
12213;BME280;6169;44.158;22.788;2023-01-28T05:12:52;100863.38;;;5.57;62.98
12213;BME280;6169;44.158;22.788;2023-01-28T05:17:56;100861.41;;;5.36;63.17
12213;BME280;6169;44.158;22.788;2023-01-28T05:22:59;100855.25;;;5.12;64.62
12213;BME280;6169;44.158;22.788;2023-01-28T05:28:01;100861.56;;;5.20;64.75
12213;BME280;6169;44.158;22.788;2023-01-28T05:33:05;100858.91;;;5.34;63.52
12213;BME280;6169;44.158;22.788;2023-01-28T05:38:07;100856.06;;;5.36;63.01
12213;BME280;6169;44.158;22.788;2023-01-28T05:43:09;100860.59;;;4.98;63.90
12213;BME280;6169;44.158;22.788;2023-01-28T05:48:13;100873.59;;;5.24;63.07
12213;BME280;6169;44.158;22.788;2023-01-28T05:53:15;100876.34;;;5.68;61.51
12213;BME280;6169;44.158;22.788;2023-01-28T05:58:18;100885.31;;;5.60;62.59
12213;BME280;6169;44.158;22.788;2023-01-28T06:03:22;100892.47;;;5.53;61.99
12213;BME280;6169;44.158;22.788;2023-01-28T06:08:24;100895.44;;;5.58;62.19
12213;BME280;6169;44.158;22.788;2023-01-28T06:13:26;100896.72;;;5.48;62.20
12213;BME280;6169;44.158;22.788;2023-01-28T06:18:30;100901.56;;;5.67;61.03
12213;BME280;6169;44.158;22.788;2023-01-28T06:23:32;100910.53;;;5.59;61.93
12213;BME280;6169;44.158;22.788;2023-01-28T06:28:34;100919.47;;;4.99;63.79
12213;BME280;6169;44.158;22.788;2023-01-28T06:33:38;100922.13;;;5.60;61.78
12213;BME280;6169;44.158;22.788;2023-01-28T06:38:40;100923.06;;;5.67;61.86
12213;BME280;6169;44.158;22.788;2023-01-28T06:43:42;100928.94;;;5.71;62.71
12213;BME280;6169;44.158;22.788;2023-01-28T06:48:46;100925.22;;;5.72;62.60
12213;BME280;6169;44.158;22.788;2023-01-28T06:53:48;100933.09;;;5.88;62.26
12213;BME280;6169;44.158;22.788;2023-01-28T06:58:50;100941.66;;;6.07;62.25
12213;BME280;6169;44.158;22.788;2023-01-28T07:03:54;100948.78;;;5.85;62.20
12213;BME280;6169;44.158;22.788;2023-01-28T07:08:57;100945.25;;;5.99;62.78
12213;BME280;6169;44.158;22.788;2023-01-28T07:13:59;100955.75;;;6.09;62.43
12213;BME280;6169;44.158;22.788;2023-01-28T07:19:03;100954.72;;;6.10;61.49
12213;BME280;6169;44.158;22.788;2023-01-28T07:24:05;100958.59;;;6.22;60.65
12213;BME280;6169;44.158;22.788;2023-01-28T07:29:08;100951.75;;;6.34;61.44
12213;BME280;6169;44.158;22.788;2023-01-28T07:34:11;100966.13;;;6.12;62.08
12213;BME280;6169;44.158;22.788;2023-01-28T07:39:14;100975.88;;;5.98;62.43
12213;BME280;6169;44.158;22.788;2023-01-28T07:44:16;100972.38;;;5.74;62.44
12213;BME280;6169;44.158;22.788;2023-01-28T07:49:20;100987.63;;;5.97;61.79
12213;BME280;6169;44.158;22.788;2023-01-28T07:54:22;100983.75;;;6.29;61.35
12213;BME280;6169;44.158;22.788;2023-01-28T07:59:24;100982.91;;;6.14;60.63
12213;BME280;6169;44.158;22.788;2023-01-28T08:04:28;100995.25;;;6.23;60.94
12213;BME280;6169;44.158;22.788;2023-01-28T08:09:30;100993.56;;;5.92;61.59
12213;BME280;6169;44.158;22.788;2023-01-28T08:14:33;101000.22;;;5.81;62.82
12213;BME280;6169;44.158;22.788;2023-01-28T08:19:37;100996.44;;;6.05;62.10
12213;BME280;6169;44.158;22.788;2023-01-28T08:24:40;101007.75;;;6.31;61.20
12213;BME280;6169;44.158;22.788;2023-01-28T08:29:42;101017.16;;;5.44;63.52
12213;BME280;6169;44.158;22.788;2023-01-28T08:34:45;101001.16;;;5.28;64.51
12213;BME280;6169;44.158;22.788;2023-01-28T08:39:48;101026.75;;;5.61;63.89
12213;BME280;6169;44.158;22.788;2023-01-28T08:44:50;101031.22;;;5.92;63.21
12213;BME280;6169;44.158;22.788;2023-01-28T08:49:54;101037.22;;;5.94;63.49
12213;BME280;6169;44.158;22.788;2023-01-28T08:54:56;101033.78;;;5.63;64.68
12213;BME280;6169;44.158;22.788;2023-01-28T08:59:58;101046.38;;;5.85;65.12
12213;BME280;6169;44.158;22.788;2023-01-28T09:05:02;101040.72;;;5.80;64.69
12213;BME280;6169;44.158;22.788;2023-01-28T09:10:06;101037.78;;;5.44;65.57
12213;BME280;6169;44.158;22.788;2023-01-28T09:15:09;101043.19;;;5.67;64.49
12213;BME280;6169;44.158;22.788;2023-01-28T09:20:13;101027.88;;;5.90;64.61
12213;BME280;6169;44.158;22.788;2023-01-28T09:25:15;101044.94;;;5.97;64.67
12213;BME280;6169;44.158;22.788;2023-01-28T09:30:18;101047.13;;;5.56;65.06
12213;BME280;6169;44.158;22.788;2023-01-28T09:35:21;101045.16;;;5.73;64.97
12213;BME280;6169;44.158;22.788;2023-01-28T09:40:30;101037.09;;;5.73;65.94
12213;BME280;6169;44.158;22.788;2023-01-28T09:45:37;101038.09;;;5.72;65.84
12213;BME280;6169;44.158;22.788;2023-01-28T09:50:45;101032.00;;;5.32;68.06
12213;BME280;6169;44.158;22.788;2023-01-28T09:55:52;101045.56;;;5.15;67.56
12213;BME280;6169;44.158;22.788;2023-01-28T10:00:59;101047.91;;;6.02;65.21
12213;BME280;6169;44.158;22.788;2023-01-28T10:06:17;101044.75;;;5.99;65.38
12213;BME280;6169;44.158;22.788;2023-01-28T10:11:26;101044.81;;;5.76;65.76
12213;BME280;6169;44.158;22.788;2023-01-28T10:16:37;101026.97;;;5.98;64.89
12213;BME280;6169;44.158;22.788;2023-01-28T10:21:47;101037.09;;;5.73;65.59
12213;BME280;6169;44.158;22.788;2023-01-28T10:26:51;101034.47;;;5.42;67.25
12213;BME280;6169;44.158;22.788;2023-01-28T10:31:57;101027.19;;;5.88;65.13
12213;BME280;6169;44.158;22.788;2023-01-28T10:37:02;101017.81;;;5.69;65.64
12213;BME280;6169;44.158;22.788;2023-01-28T10:42:15;100973.25;;;5.75;66.15
12213;BME280;6169;44.158;22.788;2023-01-28T10:47:28;101012.03;;;5.95;65.45
12213;BME280;6169;44.158;22.788;2023-01-28T10:52:32;101007.56;;;6.02;65.11
12213;BME280;6169;44.158;22.788;2023-01-28T10:57:40;101002.72;;;5.83;65.65
12213;BME280;6169;44.158;22.788;2023-01-28T11:02:43;101015.72;;;5.94;64.29
12213;BME280;6169;44.158;22.788;2023-01-28T11:07:47;101029.94;;;6.47;63.45
12213;BME280;6169;44.158;22.788;2023-01-28T11:12:54;101015.84;;;6.31;64.33
12213;BME280;6169;44.158;22.788;2023-01-28T11:17:59;101017.81;;;6.73;63.20
12213;BME280;6169;44.158;22.788;2023-01-28T11:23:03;101011.56;;;6.36;63.11
12213;BME280;6169;44.158;22.788;2023-01-28T11:28:15;101014.50;;;6.71;62.18
12213;BME280;6169;44.158;22.788;2023-01-28T11:33:20;101014.63;;;6.63;61.09
12213;BME280;6169;44.158;22.788;2023-01-28T11:38:25;101002.88;;;6.85;60.75
12213;BME280;6169;44.158;22.788;2023-01-28T11:43:29;101005.09;;;6.45;60.79
12213;BME280;6169;44.158;22.788;2023-01-28T11:48:41;101005.16;;;6.52;61.21
12213;BME280;6169;44.158;22.788;2023-01-28T11:54:02;100998.56;;;6.25;61.13
12213;BME280;6169;44.158;22.788;2023-01-28T12:04:44;101008.50;;;6.39;62.21
12213;BME280;6169;44.158;22.788;2023-01-28T12:09:54;101009.50;;;6.68;60.95
12213;BME280;6169;44.158;22.788;2023-01-28T12:15:16;101008.56;;;6.61;60.57
12213;BME280;6169;44.158;22.788;2023-01-28T12:20:28;101013.25;;;6.88;60.11
12213;BME280;6169;44.158;22.788;2023-01-28T12:25:49;101012.59;;;6.65;61.04
12213;BME280;6169;44.158;22.788;2023-01-28T12:31:28;101014.13;;;6.74;60.47
12213;BME280;6169;44.158;22.788;2023-01-28T12:36:43;101019.63;;;6.66;61.17
12213;BME280;6169;44.158;22.788;2023-01-28T12:42:02;101021.00;;;6.77;60.33
12213;BME280;6169;44.158;22.788;2023-01-28T12:47:09;101017.00;;;6.87;59.87
12213;BME280;6169;44.158;22.788;2023-01-28T12:52:16;101025.91;;;6.88;59.87
12213;BME280;6169;44.158;22.788;2023-01-28T12:57:23;101023.03;;;7.11;59.82
12213;BME280;6169;44.158;22.788;2023-01-28T13:02:28;101027.59;;;7.10;59.15
12213;BME280;6169;44.158;22.788;2023-01-28T13:07:37;101034.69;;;7.33;58.89
12213;BME280;6169;44.158;22.788;2023-01-28T13:12:44;100874.09;;;6.31;58.40
12213;BME280;6169;44.158;22.788;2023-01-28T13:17:57;101039.47;;;7.16;59.23
12213;BME280;6169;44.158;22.788;2023-01-28T13:23:01;101040.03;;;7.11;59.16
12213;BME280;6169;44.158;22.788;2023-01-28T13:28:24;101043.22;;;7.36;58.16
12213;BME280;6169;44.158;22.788;2023-01-28T13:33:30;101044.94;;;6.86;60.00
12213;BME280;6169;44.158;22.788;2023-01-28T13:38:32;101047.94;;;6.77;60.48
12213;BME280;6169;44.158;22.788;2023-01-28T13:43:38;101061.22;;;7.14;58.72
12213;BME280;6169;44.158;22.788;2023-01-28T13:48:44;101059.91;;;6.74;60.38
12213;BME280;6169;44.158;22.788;2023-01-28T13:53:55;101061.75;;;6.73;60.54
12213;BME280;6169;44.158;22.788;2023-01-28T13:59:28;101055.91;;;6.70;59.63
12213;BME280;6169;44.158;22.788;2023-01-28T14:10:36;101072.44;;;6.67;58.69
12213;BME280;6169;44.158;22.788;2023-01-28T14:15:51;101068.81;;;6.60;59.50
12213;BME280;6169;44.158;22.788;2023-01-28T14:21:00;101072.72;;;6.72;58.63
12213;BME280;6169;44.158;22.788;2023-01-28T14:26:14;101076.47;;;6.92;58.63
12213;BME280;6169;44.158;22.788;2023-01-28T14:31:24;101083.06;;;7.41;57.18
12213;BME280;6169;44.158;22.788;2023-01-28T14:36:29;101086.16;;;7.02;58.05
12213;BME280;6169;44.158;22.788;2023-01-28T14:41:31;101059.78;;;6.67;58.86
12213;BME280;6169;44.158;22.788;2023-01-28T14:46:40;101099.72;;;6.34;60.03
12213;BME280;6169;44.158;22.788;2023-01-28T14:51:57;101101.88;;;6.54;59.56
12213;BME280;6169;44.158;22.788;2023-01-28T15:14:47;101125.75;;;6.19;60.91
12213;BME280;6169;44.158;22.788;2023-01-28T15:19:49;101114.66;;;6.52;59.28
12213;BME280;6169;44.158;22.788;2023-01-28T15:24:52;101118.47;;;6.04;61.34
12213;BME280;6169;44.158;22.788;2023-01-28T15:29:57;101127.31;;;5.44;63.35
12213;BME280;6169;44.158;22.788;2023-01-28T15:35:00;101129.59;;;6.01;61.80
12213;BME280;6169;44.158;22.788;2023-01-28T15:40:03;101133.78;;;6.04;61.94
12213;BME280;6169;44.158;22.788;2023-01-28T15:45:16;101140.47;;;5.85;61.28
12213;BME280;6169;44.158;22.788;2023-01-28T15:50:20;101147.47;;;5.94;61.94
12213;BME280;6169;44.158;22.788;2023-01-28T15:55:30;101169.50;;;6.13;61.33
12213;BME280;6169;44.158;22.788;2023-01-28T16:00:36;101158.56;;;5.91;62.06
12213;BME280;6169;44.158;22.788;2023-01-28T16:05:40;101158.00;;;6.04;61.22
12213;BME280;6169;44.158;22.788;2023-01-28T16:10:50;101156.03;;;5.75;61.99
12213;BME280;6169;44.158;22.788;2023-01-28T16:15:54;101172.69;;;5.93;60.92
12213;BME280;6169;44.158;22.788;2023-01-28T16:20:58;101174.88;;;5.67;61.84
12213;BME280;6169;44.158;22.788;2023-01-28T16:26:02;101176.34;;;6.00;60.36
12213;BME280;6169;44.158;22.788;2023-01-28T16:31:10;101185.41;;;5.76;61.48
12213;BME280;6169;44.158;22.788;2023-01-28T16:36:13;101187.75;;;5.79;61.62
12213;BME280;6169;44.158;22.788;2023-01-28T16:41:22;101189.69;;;5.86;61.62
12213;BME280;6169;44.158;22.788;2023-01-28T16:46:27;101194.13;;;5.78;61.66
12213;BME280;6169;44.158;22.788;2023-01-28T16:51:30;101199.25;;;6.11;60.68
12213;BME280;6169;44.158;22.788;2023-01-28T16:56:32;101204.13;;;6.16;59.86
12213;BME280;6169;44.158;22.788;2023-01-28T17:01:36;101215.19;;;5.67;61.94
12213;BME280;6169;44.158;22.788;2023-01-28T17:06:39;101218.50;;;6.00;60.94
12213;BME280;6169;44.158;22.788;2023-01-28T17:11:44;101222.31;;;5.82;61.20
12213;BME280;6169;44.158;22.788;2023-01-28T17:16:47;101227.44;;;6.00;60.73
12213;BME280;6169;44.158;22.788;2023-01-28T17:21:50;101224.03;;;5.83;61.48
12213;BME280;6169;44.158;22.788;2023-01-28T17:26:52;101229.97;;;5.94;61.68
12213;BME280;6169;44.158;22.788;2023-01-28T17:31:56;101235.97;;;6.04;61.44
12213;BME280;6169;44.158;22.788;2023-01-28T17:36:58;101242.78;;;5.92;61.81
12213;BME280;6169;44.158;22.788;2023-01-28T17:42:01;101246.22;;;5.77;63.38
12213;BME280;6169;44.158;22.788;2023-01-28T17:47:05;101247.84;;;5.87;61.56
12213;BME280;6169;44.158;22.788;2023-01-28T17:52:07;101265.00;;;5.38;64.00
12213;BME280;6169;44.158;22.788;2023-01-28T17:57:10;101264.22;;;6.00;62.61
12213;BME280;6169;44.158;22.788;2023-01-28T18:02:14;101262.56;;;5.99;62.23
12213;BME280;6169;44.158;22.788;2023-01-28T18:07:16;101273.63;;;6.04;62.65
12213;BME280;6169;44.158;22.788;2023-01-28T18:12:18;101138.09;;;4.41;65.42
12213;BME280;6169;44.158;22.788;2023-01-28T18:17:22;101271.34;;;5.53;64.02
12213;BME280;6169;44.158;22.788;2023-01-28T18:22:29;101282.34;;;5.27;65.84
12213;BME280;6169;44.158;22.788;2023-01-28T18:27:31;101284.38;;;5.73;63.97
12213;BME280;6169;44.158;22.788;2023-01-28T18:32:35;101298.25;;;5.45;65.54
12213;BME280;6169;44.158;22.788;2023-01-28T18:37:39;101300.09;;;5.45;65.52
12213;BME280;6169;44.158;22.788;2023-01-28T18:42:41;101296.06;;;5.88;64.09
12213;BME280;6169;44.158;22.788;2023-01-28T18:47:44;101305.25;;;5.54;65.14
12213;BME280;6169;44.158;22.788;2023-01-28T18:52:47;101302.34;;;5.25;66.69
12213;BME280;6169;44.158;22.788;2023-01-28T18:57:49;101299.91;;;5.94;64.23
12213;BME280;6169;44.158;22.788;2023-01-28T19:02:53;101304.25;;;6.03;63.59
12213;BME280;6169;44.158;22.788;2023-01-28T19:07:55;101305.22;;;6.02;63.66
12213;BME280;6169;44.158;22.788;2023-01-28T19:12:58;101304.88;;;5.74;64.64
12213;BME280;6169;44.158;22.788;2023-01-28T19:18:02;101316.66;;;5.56;65.08
12213;BME280;6169;44.158;22.788;2023-01-28T19:23:04;101303.59;;;5.53;65.86
12213;BME280;6169;44.158;22.788;2023-01-28T19:28:07;101313.25;;;5.79;64.73
12213;BME280;6169;44.158;22.788;2023-01-28T19:33:10;101312.78;;;5.67;65.11
12213;BME280;6169;44.158;22.788;2023-01-28T19:38:13;101322.47;;;6.16;62.74
12213;BME280;6169;44.158;22.788;2023-01-28T19:43:15;101316.44;;;5.66;64.24
12213;BME280;6169;44.158;22.788;2023-01-28T19:48:19;101322.00;;;5.81;64.53
12213;BME280;6169;44.158;22.788;2023-01-28T19:53:22;101321.25;;;5.95;63.87
12213;BME280;6169;44.158;22.788;2023-01-28T19:58:24;101328.47;;;5.95;64.64
12213;BME280;6169;44.158;22.788;2023-01-28T20:03:28;101330.22;;;5.79;64.61
12213;BME280;6169;44.158;22.788;2023-01-28T20:08:30;101332.50;;;5.91;65.12
12213;BME280;6169;44.158;22.788;2023-01-28T20:13:33;101330.09;;;5.73;65.56
12213;BME280;6169;44.158;22.788;2023-01-28T20:18:37;101338.94;;;5.18;67.78
12213;BME280;6169;44.158;22.788;2023-01-28T20:23:39;101333.66;;;5.49;66.38
12213;BME280;6169;44.158;22.788;2023-01-28T20:28:42;101340.03;;;5.56;65.81
12213;BME280;6169;44.158;22.788;2023-01-28T20:33:45;101335.38;;;5.97;64.47
12213;BME280;6169;44.158;22.788;2023-01-28T20:38:47;101341.00;;;5.63;65.83
12213;BME280;6169;44.158;22.788;2023-01-28T20:43:51;101339.31;;;5.78;65.73
12213;BME280;6169;44.158;22.788;2023-01-28T20:48:57;101339.00;;;6.04;64.91
12213;BME280;6169;44.158;22.788;2023-01-28T20:54:03;101336.56;;;5.95;64.41
12213;BME280;6169;44.158;22.788;2023-01-28T20:59:05;101340.78;;;5.89;65.63
12213;BME280;6169;44.158;22.788;2023-01-28T21:04:08;101338.59;;;5.85;65.21
12213;BME280;6169;44.158;22.788;2023-01-28T21:09:10;101342.88;;;6.33;64.01
12213;BME280;6169;44.158;22.788;2023-01-28T21:14:13;101345.84;;;5.84;65.04
12213;BME280;6169;44.158;22.788;2023-01-28T21:19:17;101343.19;;;6.07;64.05
12213;BME280;6169;44.158;22.788;2023-01-28T21:24:20;101341.50;;;5.67;65.37
12213;BME280;6169;44.158;22.788;2023-01-28T21:29:22;101341.63;;;6.21;63.70
12213;BME280;6169;44.158;22.788;2023-01-28T21:34:25;101340.47;;;5.84;64.65
12213;BME280;6169;44.158;22.788;2023-01-28T21:39:28;101341.25;;;6.24;63.87
12213;BME280;6169;44.158;22.788;2023-01-28T21:44:30;101350.91;;;6.10;63.68
12213;BME280;6169;44.158;22.788;2023-01-28T21:49:33;101347.22;;;5.64;65.13
12213;BME280;6169;44.158;22.788;2023-01-28T21:54:35;101343.69;;;6.11;64.01
12213;BME280;6169;44.158;22.788;2023-01-28T21:59:38;101354.50;;;5.94;63.60
12213;BME280;6169;44.158;22.788;2023-01-28T22:04:43;101354.28;;;5.56;64.98
12213;BME280;6169;44.158;22.788;2023-01-28T22:09:46;101364.91;;;5.50;65.74
12213;BME280;6169;44.158;22.788;2023-01-28T22:14:48;101364.69;;;5.76;64.50
12213;BME280;6169;44.158;22.788;2023-01-28T22:19:52;101367.91;;;6.02;63.50
12213;BME280;6169;44.158;22.788;2023-01-28T22:24:54;101370.06;;;5.76;64.22
12213;BME280;6169;44.158;22.788;2023-01-28T22:29:56;101281.38;;;5.12;64.19
12213;BME280;6169;44.158;22.788;2023-01-28T22:35:00;101375.41;;;5.84;63.02
12213;BME280;6169;44.158;22.788;2023-01-28T22:40:05;101362.72;;;6.01;62.73
12213;BME280;6169;44.158;22.788;2023-01-28T22:45:08;101377.66;;;5.56;63.92
12213;BME280;6169;44.158;22.788;2023-01-28T22:50:12;101372.88;;;5.82;62.76
12213;BME280;6169;44.158;22.788;2023-01-28T22:55:14;101379.06;;;5.91;62.80
12213;BME280;6169;44.158;22.788;2023-01-28T23:00:19;101372.22;;;6.20;61.21
12213;BME280;6169;44.158;22.788;2023-01-28T23:05:22;101373.44;;;5.70;62.97
12213;BME280;6169;44.158;22.788;2023-01-28T23:10:25;101375.16;;;6.02;62.01
12213;BME280;6169;44.158;22.788;2023-01-28T23:15:27;101380.38;;;5.23;65.10
12213;BME280;6169;44.158;22.788;2023-01-28T23:20:48;101376.25;;;5.85;63.17
12213;BME280;6169;44.158;22.788;2023-01-28T23:26:07;101377.47;;;5.49;63.59
12213;BME280;6169;44.158;22.788;2023-01-28T23:31:10;101380.81;;;5.68;63.15
12213;BME280;6169;44.158;22.788;2023-01-28T23:36:13;101384.00;;;5.55;63.96
12213;BME280;6169;44.158;22.788;2023-01-28T23:41:15;101401.44;;;5.92;62.71
12213;BME280;6169;44.158;22.788;2023-01-28T23:46:17;101392.59;;;5.58;63.11
12213;BME280;6169;44.158;22.788;2023-01-28T23:51:21;101386.06;;;5.45;64.05
12213;BME280;6169;44.158;22.788;2023-01-28T23:56:23;101387.72;;;5.46;63.72
